createdAt,value
2023-02-12T00:01:15.126Z,68.47
2023-02-12T00:02:39.818Z,55.70
2023-02-12T00:04:11.726Z,67.80
2023-02-12T00:05:51.743Z,63.65
2023-02-12T00:07:23.563Z,61.67
2023-02-12T00:08:48.042Z,67.18
2023-02-12T00:10:19.697Z,69.40
2023-02-12T00:11:43.808Z,64.00
2023-02-12T00:13:10.447Z,68.82
2023-02-12T00:14:34.828Z,61.92
2023-02-12T00:15:56.529Z,63.67
2023-02-12T00:17:19.714Z,58.53
2023-02-12T00:18:40.985Z,70.75
2023-02-12T00:20:04.107Z,65.13
2023-02-12T00:21:26.241Z,63.95
2023-02-12T00:24:14.003Z,67.32
2023-02-12T00:25:37.479Z,61.15
2023-02-12T00:27:00.010Z,59.83
2023-02-12T00:28:22.208Z,62.40
2023-02-12T00:31:08.428Z,60.03
2023-02-12T00:32:30.877Z,56.47
2023-02-12T00:34:03.427Z,62.85
2023-02-12T00:35:25.126Z,65.20
2023-02-12T00:36:47.915Z,72.20
2023-02-12T00:38:11.253Z,55.15
2023-02-12T00:39:38.214Z,65.32
2023-02-12T00:40:59.352Z,48.50
2023-02-12T00:42:21.816Z,65.35
2023-02-12T00:43:43.413Z,61.63
2023-02-12T00:45:08.652Z,60.50
2023-02-12T00:46:30.986Z,68.03
2023-02-12T00:47:55.109Z,61.97
2023-02-12T00:49:19.218Z,51.90
2023-02-12T00:50:44.246Z,60.20
2023-02-12T00:52:07.227Z,60.03
2023-02-12T00:53:29.013Z,67.10
2023-02-12T00:54:51.475Z,69.15
2023-02-12T00:56:21.678Z,56.28
2023-02-12T00:57:44.636Z,58.40
2023-02-12T00:59:06.082Z,58.90
2023-02-12T01:00:31.959Z,55.15
2023-02-12T01:01:56.748Z,57.15
2023-02-12T01:03:18.620Z,55.83
2023-02-12T01:04:43.929Z,63.97
2023-02-12T01:06:09.190Z,57.90
2023-02-12T01:07:33.189Z,58.03
2023-02-12T01:08:55.391Z,61.85
2023-02-12T01:10:18.526Z,56.75
2023-02-12T01:11:45.888Z,52.40
2023-02-12T01:13:08.314Z,57.03
2023-02-12T01:14:32.662Z,58.92
2023-02-12T01:16:10.918Z,55.13
2023-02-12T01:17:33.708Z,53.88
2023-02-12T01:18:57.289Z,49.90
2023-02-12T01:20:25.823Z,54.95
2023-02-12T01:21:48.600Z,62.88
2023-02-12T01:23:13.640Z,58.25
2023-02-12T01:24:37.306Z,65.28
2023-02-12T01:26:02.972Z,64.57
2023-02-12T01:27:25.285Z,63.10
2023-02-12T01:28:51.930Z,53.70
2023-02-12T01:30:22.357Z,58.53
2023-02-12T01:33:11.260Z,56.35
2023-02-12T01:34:33.709Z,53.95
2023-02-12T01:35:55.548Z,64.07
2023-02-12T01:37:18.291Z,55.00
2023-02-12T01:38:39.976Z,51.78
2023-02-12T01:40:06.466Z,55.63
2023-02-12T01:41:35.937Z,51.17
2023-02-12T01:43:05.463Z,56.53
2023-02-12T01:44:30.934Z,55.65
2023-02-12T01:45:54.271Z,55.83
2023-02-12T01:47:23.787Z,57.22
2023-02-12T01:48:48.535Z,60.85
2023-02-12T01:50:14.577Z,55.22
2023-02-12T01:51:40.069Z,58.15
2023-02-12T01:53:04.604Z,47.95
2023-02-12T01:54:28.459Z,55.53
2023-02-12T01:55:54.200Z,63.38
2023-02-12T01:57:21.306Z,63.15
2023-02-12T01:58:46.367Z,55.55
2023-02-12T02:00:12.935Z,68.53
2023-02-12T02:01:38.848Z,46.85
2023-02-12T02:03:04.906Z,46.38
2023-02-12T02:04:33.921Z,46.42
2023-02-12T02:05:59.549Z,44.80
2023-02-12T02:07:21.902Z,54.20
2023-02-12T02:08:46.074Z,44.42
2023-02-12T02:10:10.133Z,41.80
2023-02-12T02:11:50.089Z,54.67
2023-02-12T02:13:29.994Z,48.78
2023-02-12T02:14:53.968Z,59.78
2023-02-12T02:16:21.182Z,44.42
2023-02-12T02:17:53.185Z,57.83
2023-02-12T02:19:32.681Z,56.60
2023-02-12T02:21:27.724Z,56.97
2023-02-12T02:23:01.981Z,40.63
2023-02-12T02:25:05.709Z,52.78
2023-02-12T02:26:51.022Z,53.42
2023-02-12T02:28:36.941Z,47.10
2023-02-12T02:30:45.495Z,54.65
2023-02-12T02:32:11.962Z,44.33
2023-02-12T02:33:44.758Z,55.38
2023-02-12T02:35:11.997Z,62.72
2023-02-12T02:36:59.669Z,51.63
2023-02-12T02:38:29.764Z,46.60
2023-02-12T02:39:59.990Z,45.47
2023-02-12T02:41:30.599Z,57.90
2023-02-12T02:42:57.459Z,57.17
2023-02-12T02:44:26.458Z,43.40
2023-02-12T02:45:52.002Z,60.28
2023-02-12T02:47:17.502Z,59.33
2023-02-12T02:48:44.522Z,49.83
2023-02-12T02:50:10.902Z,48.40
2023-02-12T02:51:37.616Z,52.53
2023-02-12T02:53:04.105Z,50.95
2023-02-12T02:54:33.065Z,50.08
2023-02-12T02:56:00.316Z,49.00
2023-02-12T02:57:28.775Z,54.13
2023-02-12T02:58:57.494Z,52.30
2023-02-12T03:00:22.029Z,47.67
2023-02-12T03:01:53.549Z,49.80
2023-02-12T03:03:25.419Z,45.65
2023-02-12T03:04:52.620Z,50.55
2023-02-12T03:06:19.878Z,47.75
2023-02-12T03:07:47.199Z,52.58
2023-02-12T03:09:18.461Z,51.28
2023-02-12T03:10:46.537Z,58.35
2023-02-12T03:12:13.758Z,46.42
2023-02-12T03:13:40.585Z,40.67
2023-02-12T03:15:07.731Z,52.33
2023-02-12T03:16:33.289Z,49.97
2023-02-12T03:18:00.273Z,41.45
2023-02-12T03:19:36.678Z,50.97
2023-02-12T03:21:02.854Z,42.60
2023-02-12T03:22:29.711Z,55.17
2023-02-12T03:23:56.976Z,41.10
2023-02-12T03:25:24.188Z,45.13
2023-02-12T03:26:52.155Z,45.83
2023-02-12T03:28:25.160Z,42.28
2023-02-12T03:29:48.105Z,39.97
2023-02-12T03:31:20.374Z,49.25
2023-02-12T03:32:51.582Z,44.17
2023-02-12T03:34:23.751Z,48.42
2023-02-12T03:35:56.788Z,45.08
2023-02-12T03:37:22.777Z,46.58
2023-02-12T03:38:53.708Z,48.38
2023-02-12T03:40:23.667Z,58.78
2023-02-12T03:41:51.232Z,45.55
2023-02-12T03:43:23.599Z,39.17
2023-02-12T03:44:59.167Z,36.65
2023-02-12T03:46:26.857Z,39.97
2023-02-12T03:47:59.600Z,44.22
2023-02-12T03:49:30.170Z,41.35
2023-02-12T03:50:58.698Z,49.03
2023-02-12T03:52:22.397Z,44.83
2023-02-12T03:53:45.018Z,43.45
2023-02-12T03:55:10.495Z,34.35
2023-02-12T03:56:37.997Z,33.83
2023-02-12T03:58:09.135Z,43.70
2023-02-12T03:59:37.404Z,45.53
2023-02-12T04:01:05.693Z,42.15
2023-02-12T04:02:32.368Z,48.40
2023-02-12T04:03:54.345Z,34.58
2023-02-12T04:05:26.946Z,46.60
2023-02-12T04:06:50.920Z,32.80
2023-02-12T04:08:14.528Z,43.90
2023-02-12T04:09:36.285Z,44.15
2023-02-12T04:11:07.917Z,50.17
2023-02-12T04:12:44.586Z,51.58
2023-02-12T04:14:19.864Z,44.35
2023-02-12T04:15:58.744Z,40.80
2023-02-12T04:17:29.497Z,43.00
2023-02-12T04:18:52.326Z,36.45
2023-02-12T04:20:28.465Z,44.45
2023-02-12T04:22:03.416Z,45.03
2023-02-12T04:23:45.864Z,49.25
2023-02-12T04:25:22.756Z,45.13
2023-02-12T04:26:58.166Z,52.75
2023-02-12T04:28:28.722Z,45.78
2023-02-12T04:29:56.338Z,46.55
2023-02-12T04:31:26.981Z,47.17
2023-02-12T04:32:54.493Z,40.97
2023-02-12T04:34:22.444Z,42.78
2023-02-12T04:35:50.312Z,46.95
2023-02-12T04:37:20.967Z,46.88
2023-02-12T04:38:47.138Z,41.05
2023-02-12T04:40:15.355Z,47.38
2023-02-12T04:41:39.325Z,36.17
2023-02-12T04:43:04.387Z,39.63
2023-02-12T04:44:30.386Z,46.20
2023-02-12T04:45:53.145Z,46.17
2023-02-12T04:47:17.776Z,47.95
2023-02-12T04:48:53.689Z,51.03
2023-02-12T04:50:15.727Z,39.58
2023-02-12T04:51:40.993Z,44.35
2023-02-12T04:53:09.461Z,46.40
2023-02-12T04:54:33.914Z,45.45
2023-02-12T04:55:56.688Z,44.42
2023-02-12T04:57:20.822Z,45.53
2023-02-12T04:58:44.755Z,54.83
2023-02-12T05:00:11.277Z,54.10
2023-02-12T05:01:35.391Z,46.53
2023-02-12T05:03:00.049Z,53.13
2023-02-12T05:04:32.024Z,46.65
2023-02-12T05:05:59.525Z,51.17
2023-02-12T05:07:24.822Z,53.33
2023-02-12T05:08:49.856Z,50.83
2023-02-12T05:10:12.891Z,44.30
2023-02-12T05:11:34.299Z,54.92
2023-02-12T05:13:00.550Z,40.65
2023-02-12T05:14:25.553Z,54.33
2023-02-12T05:15:46.860Z,47.35
2023-02-12T05:17:09.231Z,50.13
2023-02-12T05:18:33.786Z,44.25
2023-02-12T05:21:17.541Z,45.13
2023-02-12T05:22:39.791Z,48.72
2023-02-12T05:24:04.271Z,46.22
2023-02-12T05:25:29.059Z,50.33
2023-02-12T05:26:52.251Z,49.00
2023-02-12T05:28:15.812Z,50.65
2023-02-12T05:29:40.568Z,47.42
2023-02-12T05:31:02.789Z,57.38
2023-02-12T05:32:25.494Z,53.35
2023-02-12T05:33:51.334Z,58.40
2023-02-12T05:35:15.688Z,44.83
2023-02-12T05:36:38.181Z,45.15
2023-02-12T05:38:01.428Z,46.95
2023-02-12T05:39:25.529Z,54.15
2023-02-12T05:40:52.925Z,48.15
2023-02-12T05:42:15.309Z,47.88
2023-02-12T05:43:36.903Z,44.42
2023-02-12T05:44:59.566Z,51.40
2023-02-12T05:46:22.562Z,51.30
2023-02-12T05:47:45.391Z,49.22
2023-02-12T05:49:08.082Z,56.47
2023-02-12T05:50:33.142Z,34.88
2023-02-12T05:51:55.408Z,47.72
2023-02-12T05:53:16.715Z,58.03
2023-02-12T05:54:40.639Z,48.40
2023-02-12T05:56:11.201Z,40.10
2023-02-12T05:57:34.937Z,45.22
2023-02-12T05:59:07.019Z,36.85
2023-02-12T06:00:35.150Z,41.85
2023-02-12T06:02:04.020Z,48.25
2023-02-12T06:03:25.450Z,52.88
2023-02-12T06:04:48.743Z,47.15
2023-02-12T06:06:10.872Z,44.42
2023-02-12T06:07:33.582Z,53.75
2023-02-12T06:09:02.421Z,37.72
2023-02-12T06:10:26.727Z,44.75
2023-02-12T06:11:49.054Z,49.80
2023-02-12T06:13:22.818Z,48.03
2023-02-12T06:14:45.302Z,47.93
2023-02-12T06:17:29.757Z,43.65
2023-02-12T06:18:51.844Z,48.05
2023-02-12T06:20:14.719Z,45.65
2023-02-12T06:21:36.985Z,53.45
2023-02-12T06:22:59.675Z,43.65
2023-02-12T06:24:22.285Z,47.75
2023-02-12T06:25:47.560Z,36.60
2023-02-12T06:27:10.213Z,48.03
2023-02-12T06:28:33.673Z,50.25
2023-02-12T06:29:58.433Z,50.13
2023-02-12T06:31:25.800Z,48.95
2023-02-12T06:32:51.359Z,56.97
2023-02-12T06:34:19.314Z,42.13
2023-02-12T06:35:42.046Z,58.35
2023-02-12T06:37:14.019Z,54.78
2023-02-12T06:39:59.914Z,45.22
2023-02-12T06:41:24.548Z,60.85
2023-02-12T06:42:45.872Z,56.95
2023-02-12T06:44:09.023Z,47.70
2023-02-12T06:45:32.201Z,56.03
2023-02-12T06:46:54.755Z,51.80
2023-02-12T06:48:17.114Z,52.75
2023-02-12T06:49:46.298Z,59.40
2023-02-12T06:51:12.354Z,52.22
2023-02-12T06:52:33.977Z,61.63
2023-02-12T06:53:57.598Z,55.33
2023-02-12T06:55:19.614Z,50.05
2023-02-12T06:56:48.648Z,52.65
2023-02-12T06:58:10.863Z,51.40
2023-02-12T06:59:37.319Z,66.25
2023-02-12T07:01:15.097Z,57.65
2023-02-12T07:02:40.147Z,70.45
2023-02-12T07:04:06.255Z,71.15
2023-02-12T07:07:50.083Z,84.03
2023-02-12T07:09:26.711Z,67.53
2023-02-12T07:10:53.901Z,56.65
2023-02-12T07:12:29.404Z,58.00
2023-02-12T07:13:57.525Z,46.10
2023-02-12T07:15:36.849Z,51.33
2023-02-12T07:17:11.329Z,45.90
2023-02-12T07:18:40.910Z,48.90
2023-02-12T07:20:13.036Z,44.58
2023-02-12T07:21:36.988Z,52.05
2023-02-12T07:23:03.100Z,40.35
2023-02-12T07:26:56.358Z,49.67
2023-02-12T07:28:33.745Z,49.75
2023-02-12T07:30:20.180Z,49.85
2023-02-12T07:31:58.239Z,43.58
2023-02-12T07:33:26.373Z,51.97
2023-02-12T07:34:49.071Z,46.13
2023-02-12T07:36:17.630Z,47.13
2023-02-12T07:37:41.980Z,39.67
2023-02-12T07:39:33.186Z,38.47
2023-02-12T07:40:57.654Z,47.85
2023-02-12T07:42:36.169Z,43.70
2023-02-12T07:44:16.692Z,44.35
2023-02-12T07:45:41.248Z,44.95
2023-02-12T07:47:39.504Z,51.53
2023-02-12T07:49:19.365Z,56.45
2023-02-12T07:51:13.538Z,48.33
2023-02-12T07:52:44.704Z,40.53
2023-02-12T07:54:14.584Z,37.00
2023-02-12T07:55:37.098Z,42.03
2023-02-12T07:57:02.731Z,46.28
2023-02-12T07:58:27.478Z,38.75
2023-02-12T08:00:00.102Z,40.42
2023-02-12T08:01:28.972Z,41.08
2023-02-12T08:03:00.446Z,42.88
2023-02-12T08:04:27.325Z,47.22
2023-02-12T08:06:00.361Z,38.53
2023-02-12T08:07:42.556Z,54.63
2023-02-12T08:11:51.360Z,46.03
2023-02-12T08:13:20.246Z,49.15
2023-02-12T08:14:48.819Z,38.63
2023-02-12T08:16:34.830Z,40.22
2023-02-12T08:18:08.951Z,48.47
2023-02-12T08:19:39.092Z,40.55
2023-02-12T08:21:16.381Z,42.15
2023-02-12T08:22:38.980Z,49.00
2023-02-12T08:24:03.176Z,36.10
2023-02-12T08:25:26.983Z,41.60
2023-02-12T08:26:56.987Z,41.42
2023-02-12T08:28:19.658Z,43.13
2023-02-12T08:29:47.012Z,41.30
2023-02-12T08:31:23.971Z,43.03
2023-02-12T08:32:58.161Z,47.78
2023-02-12T08:34:35.505Z,46.22
2023-02-12T08:36:08.557Z,47.35
2023-02-12T08:37:47.541Z,56.83
2023-02-12T08:39:11.562Z,48.47
2023-02-12T08:40:38.085Z,35.15
2023-02-12T08:42:08.613Z,43.92
2023-02-12T08:43:33.410Z,41.70
2023-02-12T08:44:59.059Z,40.13
2023-02-12T08:46:55.945Z,46.17
2023-02-12T08:50:25.647Z,52.13
2023-02-12T08:57:31.741Z,73.07
2023-02-12T08:59:37.045Z,71.13
2023-02-12T09:01:10.993Z,82.10
2023-02-12T09:02:50.471Z,70.38
2023-02-12T09:04:23.965Z,47.42
2023-02-12T09:06:08.824Z,53.17
2023-02-12T09:07:33.511Z,61.78
2023-02-12T09:08:59.834Z,47.15
2023-02-12T09:10:27.489Z,50.42
2023-02-12T09:11:53.433Z,53.70
2023-02-12T09:13:20.628Z,49.97
2023-02-12T09:14:43.828Z,48.88
2023-02-12T09:16:21.047Z,56.38
2023-02-12T09:17:51.373Z,43.90
2023-02-12T09:19:37.161Z,43.78
2023-02-12T09:21:06.114Z,54.53
2023-02-12T09:22:49.774Z,46.70
2023-02-12T09:24:21.535Z,50.90
2023-02-12T09:25:52.069Z,49.65
2023-02-12T09:27:21.906Z,50.10
2023-02-12T09:29:00.834Z,46.42
2023-02-12T09:39:50.143Z,45.03
2023-02-12T09:41:45.161Z,43.75
2023-02-12T09:43:33.407Z,44.00
2023-02-12T09:45:08.877Z,42.15
2023-02-12T09:46:42.284Z,45.50
2023-02-12T09:48:37.608Z,45.67
2023-02-12T09:50:29.400Z,52.80
2023-02-12T09:52:28.625Z,46.77
2023-02-12T09:54:06.241Z,46.13
2023-02-12T09:55:36.006Z,41.47
2023-02-12T09:57:39.023Z,41.90
2023-02-12T09:59:19.147Z,43.40
2023-02-12T10:00:49.435Z,43.50
2023-02-12T10:02:19.344Z,49.70
2023-02-12T10:03:57.327Z,45.42
2023-02-12T10:05:33.831Z,41.05
2023-02-12T10:12:48.198Z,43.63
2023-02-12T10:15:08.075Z,42.78
2023-02-12T10:16:48.015Z,41.53
2023-02-12T10:18:38.601Z,42.60
2023-02-12T10:20:35.044Z,47.53
2023-02-12T10:22:13.998Z,35.58
2023-02-12T10:24:14.588Z,35.40
2023-02-12T10:25:47.112Z,39.90
2023-02-12T10:27:23.872Z,37.25
2023-02-12T10:29:17.496Z,36.55
2023-02-12T10:30:54.963Z,41.78
2023-02-12T10:32:29.186Z,38.90
2023-02-12T10:34:26.227Z,38.40
2023-02-12T10:36:11.624Z,33.67
2023-02-12T10:37:48.297Z,30.10
2023-02-12T10:39:58.148Z,32.72
2023-02-12T10:43:17.344Z,43.97
2023-02-12T10:45:05.239Z,27.48
2023-02-12T10:46:32.748Z,39.08
2023-02-12T10:48:43.075Z,35.33
2023-02-12T10:50:56.559Z,33.65
2023-02-12T10:53:12.279Z,36.03
2023-02-12T10:54:55.541Z,38.90
2023-02-12T10:56:23.329Z,32.95
2023-02-12T10:58:03.586Z,45.53
2023-02-12T10:59:33.026Z,35.83
2023-02-12T11:03:41.150Z,26.90
2023-02-12T11:07:56.381Z,24.27
2023-02-12T11:09:37.558Z,25.15
2023-02-12T11:18:05.742Z,27.58
2023-02-12T11:21:51.066Z,25.75
2023-02-12T11:23:39.744Z,26.10
2023-02-12T11:25:20.932Z,24.27
2023-02-12T11:26:45.478Z,26.45
2023-02-12T11:28:21.175Z,21.70
2023-02-12T11:29:51.794Z,32.47
2023-02-12T11:31:24.994Z,30.77
2023-02-12T11:34:14.875Z,23.77
2023-02-12T11:36:13.737Z,28.00
2023-02-12T11:37:50.160Z,31.40
2023-02-12T11:39:22.909Z,23.77
2023-02-12T11:40:57.541Z,32.67
2023-02-12T11:43:04.514Z,29.65
2023-02-12T11:44:50.065Z,30.88
2023-02-12T11:46:21.318Z,31.75
2023-02-12T11:47:46.434Z,23.43
2023-02-12T11:49:11.926Z,26.88
2023-02-12T11:50:43.710Z,30.17
2023-02-12T11:54:14.324Z,28.52
2023-02-12T11:55:52.938Z,27.80
2023-02-12T11:59:46.878Z,29.00
2023-02-12T12:06:49.303Z,21.65
2023-02-12T12:08:51.435Z,22.67
2023-02-12T12:13:03.731Z,23.67
2023-02-12T12:15:00.802Z,24.13
2023-02-12T12:21:40.532Z,25.80
2023-02-12T12:24:13.988Z,25.67
2023-02-12T12:31:18.229Z,19.05
2023-02-12T12:33:21.507Z,26.58
2023-02-12T12:35:00.391Z,19.92
2023-02-12T12:39:50.978Z,25.02
2023-02-12T12:41:36.221Z,27.85
2023-02-12T12:43:25.458Z,27.42
2023-02-12T12:45:16.281Z,21.38
2023-02-12T12:47:04.980Z,22.00
2023-02-12T12:48:53.815Z,23.10
2023-02-12T12:50:37.614Z,25.65
2023-02-12T12:53:08.423Z,22.77
2023-02-12T12:54:58.500Z,20.52
2023-02-12T12:57:08.472Z,20.55
2023-02-12T12:59:13.091Z,19.67
2023-02-12T13:01:23.025Z,24.17
2023-02-12T13:03:37.970Z,26.40
2023-02-12T13:06:01.996Z,20.08
2023-02-12T13:07:54.009Z,19.73
2023-02-12T13:10:04.755Z,26.83
2023-02-12T13:12:16.704Z,19.65
2023-02-12T13:14:11.406Z,19.60
2023-02-12T13:16:47.596Z,24.35
2023-02-12T13:18:41.430Z,23.02
2023-02-12T13:20:23.800Z,19.30
2023-02-12T13:22:16.084Z,23.63
2023-02-12T13:23:55.728Z,19.30
2023-02-12T13:25:37.382Z,20.65
2023-02-12T13:27:08.407Z,22.27
2023-02-12T13:28:44.057Z,23.60
2023-02-12T13:30:21.677Z,19.75
2023-02-12T13:31:51.177Z,25.58
2023-02-12T13:33:25.995Z,19.77
2023-02-12T13:34:56.485Z,21.73
2023-02-12T13:36:23.616Z,24.25
2023-02-12T13:37:51.632Z,23.02
2023-02-12T13:41:25.192Z,22.85
2023-02-12T13:43:41.913Z,19.73
2023-02-12T13:45:38.295Z,14.38
2023-02-12T13:47:14.666Z,16.25
2023-02-12T13:49:07.564Z,19.67
2023-02-12T13:52:17.622Z,20.20
2023-02-12T13:53:59.729Z,17.20
2023-02-12T13:55:36.249Z,21.58
2023-02-12T13:57:32.810Z,13.20
2023-02-12T13:59:01.708Z,18.23
2023-02-12T14:01:19.039Z,14.75
2023-02-12T14:02:51.981Z,22.45
2023-02-12T14:04:45.864Z,18.48
2023-02-12T14:06:28.651Z,19.98
2023-02-12T14:07:58.157Z,17.65
2023-02-12T14:09:32.571Z,14.25
2023-02-12T14:11:27.809Z,18.92
2023-02-12T14:13:25.703Z,17.90
2023-02-12T14:15:53.973Z,18.63
2023-02-12T14:17:55.227Z,21.48
2023-02-12T14:19:58.059Z,19.75
2023-02-12T14:21:46.404Z,26.40
2023-02-12T14:23:34.831Z,21.08
2023-02-12T14:25:03.354Z,20.60
2023-02-12T14:26:38.603Z,26.35
2023-02-12T14:28:14.084Z,26.38
2023-02-12T14:29:39.896Z,13.70
2023-02-12T14:31:33.063Z,19.90
2023-02-12T14:33:28.180Z,16.98
2023-02-12T14:34:55.574Z,15.98
2023-02-12T14:37:03.738Z,12.15
2023-02-12T14:39:07.231Z,15.45
2023-02-12T14:40:55.262Z,17.08
2023-02-12T14:42:59.079Z,18.13
2023-02-12T14:48:17.349Z,17.15
2023-02-12T14:49:50.539Z,16.73
2023-02-12T14:51:21.208Z,16.48
2023-02-12T14:53:02.224Z,13.85
2023-02-12T14:55:09.979Z,21.40
2023-02-12T14:56:57.595Z,17.92
2023-02-12T14:58:31.605Z,19.90
2023-02-12T15:00:34.923Z,15.63
2023-02-12T15:02:05.707Z,18.10
2023-02-12T15:03:43.594Z,16.33
2023-02-12T15:05:22.829Z,14.52
2023-02-12T15:09:13.645Z,12.23
2023-02-12T15:10:43.484Z,21.33
2023-02-12T15:14:24.084Z,20.13
2023-02-12T15:15:53.838Z,15.68
2023-02-12T15:17:43.014Z,17.83
2023-02-12T15:19:23.266Z,19.42
2023-02-12T15:20:55.960Z,17.10
2023-02-12T15:22:32.319Z,14.13
2023-02-12T15:24:23.838Z,22.63
2023-02-12T15:25:52.148Z,20.88
2023-02-12T15:27:25.036Z,17.80
2023-02-12T15:29:15.517Z,16.90
2023-02-12T15:30:49.265Z,24.77
2023-02-12T15:32:24.217Z,19.55
2023-02-12T15:33:50.562Z,22.92
2023-02-12T15:35:29.356Z,17.73
2023-02-12T15:36:52.333Z,18.83
2023-02-12T15:38:24.026Z,18.90
2023-02-12T15:39:52.306Z,17.67
2023-02-12T15:41:37.848Z,17.08
2023-02-12T15:43:14.845Z,21.40
2023-02-12T15:44:45.298Z,15.15
2023-02-12T15:47:11.931Z,17.02
2023-02-12T15:50:59.465Z,19.45
2023-02-12T15:52:24.958Z,19.65
2023-02-12T15:53:49.784Z,22.63
2023-02-12T15:55:18.474Z,19.30
2023-02-12T15:56:45.296Z,23.27
2023-02-12T15:58:23.631Z,19.20
2023-02-12T15:59:57.981Z,24.58
2023-02-12T16:01:24.986Z,25.23
2023-02-12T16:02:54.554Z,22.50
2023-02-12T16:04:19.832Z,21.45
2023-02-12T16:05:42.795Z,23.95
2023-02-12T16:07:06.524Z,27.15
2023-02-12T16:08:55.614Z,21.85
2023-02-12T16:10:22.422Z,23.83
2023-02-12T16:11:44.583Z,21.05
2023-02-12T16:13:23.615Z,25.38
2023-02-12T16:14:54.177Z,22.15
2023-02-12T16:16:45.395Z,23.00
2023-02-12T16:18:18.956Z,25.17
2023-02-12T16:20:23.461Z,24.83
2023-02-12T16:21:51.862Z,33.75
2023-02-12T16:23:18.481Z,26.77
2023-02-12T16:24:47.405Z,26.55
2023-02-12T16:26:44.934Z,32.15
2023-02-12T16:28:16.609Z,34.85
2023-02-12T16:29:47.605Z,31.67
2023-02-12T16:31:18.004Z,42.00
2023-02-12T16:32:50.784Z,30.13
2023-02-12T16:36:06.872Z,36.17
2023-02-12T16:37:59.852Z,29.83
2023-02-12T16:40:24.157Z,33.33
2023-02-12T16:42:25.026Z,34.55
2023-02-12T16:43:48.425Z,35.15
2023-02-12T16:45:51.872Z,36.28
2023-02-12T16:47:25.672Z,37.28
2023-02-12T16:51:35.758Z,39.95
2023-02-12T16:56:40.212Z,57.55
2023-02-12T16:58:33.066Z,39.50
2023-02-12T17:00:05.861Z,40.45
2023-02-12T17:01:48.636Z,37.22
2023-02-12T17:03:26.394Z,35.92
2023-02-12T17:05:15.741Z,46.30
2023-02-12T17:06:48.568Z,34.78
2023-02-12T17:08:44.615Z,36.17
2023-02-12T17:10:34.038Z,42.85
2023-02-12T17:14:39.126Z,46.22
2023-02-12T17:16:31.890Z,45.33
2023-02-12T17:18:42.773Z,38.63
2023-02-12T17:20:40.221Z,40.67
2023-02-12T17:22:54.795Z,43.55
2023-02-12T17:24:52.448Z,41.28
2023-02-12T17:26:35.817Z,42.28
2023-02-12T17:28:18.420Z,36.53
2023-02-12T17:29:48.212Z,37.65
2023-02-12T17:31:21.141Z,32.33
2023-02-12T17:33:21.963Z,60.28
2023-02-12T17:35:13.855Z,61.83
2023-02-12T17:37:27.099Z,49.65
2023-02-12T17:40:52.723Z,40.47
2023-02-12T17:42:41.156Z,34.38
2023-02-12T17:46:18.431Z,38.78
2023-02-12T17:47:44.830Z,34.50
2023-02-12T17:49:27.202Z,36.30
2023-02-12T17:51:15.931Z,34.58
2023-02-12T17:53:03.534Z,35.22
2023-02-12T17:54:57.515Z,33.30
2023-02-12T17:56:53.772Z,38.05
2023-02-12T17:58:20.062Z,37.40
2023-02-12T18:02:22.993Z,36.92
2023-02-12T18:04:40.411Z,41.60
2023-02-12T18:06:10.380Z,35.60
2023-02-12T18:10:32.186Z,34.50
2023-02-12T18:14:08.246Z,35.83
2023-02-12T18:15:44.764Z,37.78
2023-02-12T18:19:19.283Z,33.25
2023-02-12T18:21:21.021Z,38.90
2023-02-12T18:23:20.025Z,41.42
2023-02-12T18:24:55.546Z,40.28
2023-02-12T18:26:33.929Z,40.38
2023-02-12T18:28:12.696Z,34.50
2023-02-12T18:29:41.192Z,42.45
2023-02-12T18:31:08.823Z,38.47
2023-02-12T18:32:59.236Z,41.10
2023-02-12T18:34:56.059Z,41.65
2023-02-12T18:36:29.581Z,38.42
2023-02-12T18:37:53.269Z,43.15
2023-02-12T18:40:39.102Z,38.33
2023-02-12T18:43:04.070Z,43.63
2023-02-12T18:44:37.663Z,37.88
2023-02-12T18:46:34.635Z,42.25
2023-02-12T18:48:33.516Z,43.80
2023-02-12T18:50:42.971Z,39.92
2023-02-12T18:52:22.188Z,36.55
2023-02-12T18:54:21.989Z,40.97
2023-02-12T18:55:51.380Z,35.22
2023-02-12T18:57:22.086Z,43.63
2023-02-12T18:59:42.601Z,44.05
2023-02-12T19:01:21.697Z,34.30
2023-02-12T19:02:51.435Z,43.78
2023-02-12T19:05:17.612Z,44.50
2023-02-12T19:06:56.604Z,41.95
2023-02-12T19:08:57.698Z,40.58
2023-02-12T19:11:03.837Z,43.55
2023-02-12T19:14:38.894Z,39.42
2023-02-12T19:14:49.305Z,45.38
2023-02-12T19:16:20.845Z,46.53
2023-02-12T19:18:01.027Z,45.20
2023-02-12T19:20:15.716Z,48.85
2023-02-12T19:22:23.021Z,43.15
2023-02-12T19:24:17.182Z,43.30
2023-02-12T19:25:48.460Z,38.35
2023-02-12T19:29:34.604Z,41.88
2023-02-12T19:31:34.110Z,50.15
2023-02-12T19:33:11.849Z,44.22
2023-02-12T19:34:42.577Z,46.15
2023-02-12T19:36:46.887Z,40.60
2023-02-12T19:38:41.918Z,46.00
2023-02-12T19:40:11.323Z,42.28
2023-02-12T19:41:41.233Z,35.13
2023-02-12T19:43:26.800Z,38.45
2023-02-12T19:45:01.844Z,43.53
2023-02-12T19:46:52.431Z,44.47
2023-02-12T19:48:25.576Z,44.20
2023-02-12T19:52:15.372Z,41.08
2023-02-12T19:53:43.125Z,51.25
2023-02-12T19:55:06.616Z,46.85
2023-02-12T19:57:18.264Z,40.90
2023-02-12T19:58:51.836Z,53.78
2023-02-12T20:00:18.515Z,41.83
2023-02-12T20:01:44.158Z,43.38
2023-02-12T20:03:17.909Z,59.63
2023-02-12T20:04:45.623Z,45.08
2023-02-12T20:06:21.616Z,55.17
2023-02-12T20:07:57.570Z,48.90
2023-02-12T20:09:30.057Z,44.85
2023-02-12T20:10:55.722Z,51.53
2023-02-12T20:12:24.078Z,50.22
2023-02-12T20:13:54.056Z,47.72
2023-02-12T20:15:17.949Z,53.03
2023-02-12T20:16:53.536Z,59.65
2023-02-12T20:18:28.139Z,54.67
2023-02-12T20:20:16.075Z,57.42
2023-02-12T20:21:48.134Z,52.13
2023-02-12T20:23:15.175Z,57.90
2023-02-12T20:24:41.891Z,57.20
2023-02-12T20:26:24.361Z,52.08
2023-02-12T20:27:51.308Z,58.28
2023-02-12T20:29:15.883Z,55.15
2023-02-12T20:31:19.537Z,58.33
2023-02-12T20:32:44.902Z,51.58
2023-02-12T20:34:16.942Z,51.63
2023-02-12T20:35:47.255Z,45.95
2023-02-12T20:37:16.601Z,54.30
2023-02-12T20:38:53.334Z,53.95
2023-02-12T20:40:20.095Z,53.85
2023-02-12T20:44:11.826Z,55.40
2023-02-12T20:44:22.891Z,54.45
2023-02-12T20:46:24.261Z,52.47
2023-02-12T20:47:52.495Z,55.08
2023-02-12T20:49:19.568Z,54.50
2023-02-12T20:50:51.971Z,53.70
2023-02-12T20:52:38.297Z,56.92
2023-02-12T20:54:07.334Z,52.17
2023-02-12T20:55:41.872Z,48.80
2023-02-12T20:57:13.166Z,66.65
2023-02-12T20:58:48.764Z,58.80
2023-02-12T21:00:21.096Z,50.20
2023-02-12T21:01:47.103Z,51.92
2023-02-12T21:03:15.691Z,54.75
2023-02-12T21:04:43.191Z,63.83
2023-02-12T21:06:24.337Z,52.08
2023-02-12T21:07:54.624Z,54.55
2023-02-12T21:09:33.787Z,53.78
2023-02-12T21:11:18.750Z,55.40
2023-02-12T21:12:49.761Z,57.95
2023-02-12T21:14:32.049Z,50.72
2023-02-12T21:16:11.678Z,47.47
2023-02-12T21:17:47.114Z,49.45
2023-02-12T21:19:14.377Z,48.65
2023-02-12T21:21:11.294Z,48.70
2023-02-12T21:22:51.890Z,55.83
2023-02-12T21:27:20.849Z,40.05
2023-02-12T21:28:47.850Z,54.17
2023-02-12T21:30:26.501Z,53.40
2023-02-12T21:31:56.346Z,54.83
2023-02-12T21:34:48.600Z,51.05
2023-02-12T21:36:18.271Z,50.92
2023-02-12T21:37:43.172Z,53.30
2023-02-12T21:39:37.254Z,48.83
2023-02-12T21:41:18.623Z,58.78
2023-02-12T21:43:20.958Z,54.53
2023-02-12T21:44:44.964Z,59.13
2023-02-12T21:46:10.726Z,54.97
2023-02-12T21:47:38.669Z,47.55
2023-02-12T21:49:07.068Z,55.10
2023-02-12T21:50:39.786Z,50.33
2023-02-12T21:52:19.406Z,57.08
2023-02-12T21:53:45.422Z,55.20
2023-02-12T21:55:19.354Z,54.40
2023-02-12T21:56:47.227Z,58.47
2023-02-12T21:58:22.142Z,56.20
2023-02-12T21:59:57.318Z,55.88
2023-02-12T22:01:24.871Z,52.72
2023-02-12T22:03:08.706Z,49.13
2023-02-12T22:04:31.757Z,48.22
2023-02-12T22:06:29.187Z,56.15
2023-02-12T22:08:05.943Z,55.28
2023-02-12T22:09:45.425Z,50.67
2023-02-12T22:12:03.378Z,56.35
2023-02-12T22:13:26.093Z,52.38
2023-02-12T22:14:57.994Z,56.17
2023-02-12T22:16:31.276Z,50.83
2023-02-12T22:17:59.565Z,52.83
2023-02-12T22:19:22.564Z,55.25
2023-02-12T22:20:46.357Z,55.42
2023-02-12T22:22:13.458Z,54.58
2023-02-12T22:23:46.546Z,49.92
2023-02-12T22:25:17.967Z,59.03
2023-02-12T22:26:42.738Z,47.97
2023-02-12T22:28:16.670Z,50.40
2023-02-12T22:29:45.256Z,51.63
2023-02-12T22:31:24.933Z,52.72
2023-02-12T22:33:01.205Z,50.78
2023-02-12T22:34:37.545Z,54.03
2023-02-12T22:36:05.553Z,49.40
2023-02-12T22:37:42.044Z,53.60